ilmateenistus.ee keskkonnaagentuur.ee
EETN Tallinna lennuväli
FTEO31 EETN 250500
TAF EETN 250520Z 2506/2606 20010KT 9999 BKN013 SCT025CB TEMPO
    2506/2512 3000 SHRA BKN006 SCT020CB PROB40 2507/2511 TSRA BECMG
    2509/2511 27014KT TEMPO 2511/2516 27016G28KT TEMPO 2514/2523 BKN004
    BKN012=

METAR EETN 250820Z 20006KT 9999 -SHRA SCT013 SCT020CB BKN032 12/11 Q1002 NOSIG=
Tallinna lennuväli
EEKA Kärdla lennuväli
FCEO32 EETN 250400 AAA
TAF AMD EEKA 250800Z 2505/2511 CNL=

METAR EEKA 250750Z 24009KT 190V300 9999 BKN021 12/07 Q1002=
Kärdla lennuväli
EEKE Kuressaare lennuväli
FCEO32 EETN 250700
TAF EEKE 250700Z 2508/2514 25012KT 9999 SCT010 BKN020 TEMPO 2508/2514
    27015G25KT 4000 SHRA BKN008 SCT020CB PROB30 TEMPO 2508/2512 TSRA=

METAR EEKE 250750Z 24011KT 200V270 9999 SCT013 BKN026 13/09 Q1004=
Kuressaare lennuväli
EEPU Pärnu lennuväli
METAR EEPU 250750Z 23015KT 9999 BKN015 15/10 Q1003=
Pärnu lennuväli
EETU Tartu lennuväli
FCEO32 EETN 250600
TAF EETU 250600Z 2507/2513 18008KT 9999 SCT015 BKN030 TEMPO 2507/2512
    4000 SHRA BKN008 SCT020CB PROB40 TEMPO 2507/2512 TSRA BECMG 2510/2512
    26014KT=

METAR EETU 250820Z 20005KT 9999 -SHRA SCT045 BKN055CB 12/11 Q1005=
Tartu lennuväli
EEEI Ämari lennuväli
METAR EEEI 250750Z 24009KT 9999 FEW019 13/08 Q1002=
Ämari lennuväli